Flight Track Log - Related Links

Times and Time Zones

All times are in EDT time to prevent confusion due to time zone crossing. See the QXE2633 flight status page for this flight to view local times or setup timezone preferences in your user account.

Time Position Orientation Groundspeed Altitude Reporting Facility
EDT Latitude Longitude Course Direction KTS MPH feet Rate Location/Type
Tue 06:44:00 PM 45.0780 -122.5142 170° South  Level Estimated
Tue 06:45:00 PM 44.9959 -122.4797 163° South  Level FlightAware Approximate
Tue 06:46:00 PM 44.9108 -122.4665 172° South  Level Estimated
Tue 06:47:00 PM 44.8327 -122.4356 164° South  Level FlightAware Approximate
Tue 06:48:00 PM 44.7522 -122.4233 164° South  Level Estimated
Tue 06:49:00 PM 44.6716 -122.4112 172° South  Level Estimated
Tue 06:50:00 PM 44.5934 -122.3812 165° South  Level FlightAware Approximate
Tue 06:51:00 PM 44.5153 -122.3513 165° South  Level FlightAware Approximate
Tue 06:52:00 PM 44.4346 -122.3398 169° South  Level Estimated
Tue 06:53:00 PM 44.3563 -122.3108 165° South  Level FlightAware Approximate
Tue 06:54:00 PM 44.2780 -122.2819 165° South  Level FlightAware Approximate
Tue 06:55:00 PM 44.1973 -122.2710 170° South  Level Estimated
Tue 06:56:00 PM 44.1179 -122.2488 169° South  Level FlightAware Approximate
Tue 06:57:00 PM 44.0384 -122.2266 169° South  Level FlightAware Approximate
Tue 06:58:00 PM 43.9590 -122.2045 169° South  Level FlightAware Approximate
Tue 06:59:00 PM 43.8795 -122.1824 169° South  Level FlightAware Approximate
Tue 07:00:00 PM 43.8000 -122.1604 169° South  Level FlightAware Approximate
Tue 07:01:00 PM 43.7206 -122.1385 169° South  Level FlightAware Approximate
Tue 07:02:00 PM 43.6411 -122.1166 169° South  Level FlightAware Approximate
Tue 07:03:00 PM 43.5616 -122.0948 169° South  Level FlightAware Approximate
Tue 07:04:00 PM 43.4822 -122.0730 169° South  Level FlightAware Approximate
Tue 07:05:00 PM 43.4027 -122.0513 169° South  Level FlightAware Approximate
Tue 07:06:00 PM 43.3232 -122.0297 169° South  Level FlightAware Approximate
Tue 07:07:00 PM 43.2437 -122.0081 169° South  Level FlightAware Approximate
Tue 07:08:00 PM 43.1642 -121.9865 169° South  Level FlightAware Approximate
Tue 07:09:00 PM 43.0847 -121.9651 169° South  Level FlightAware Approximate
Tue 07:10:00 PM 43.0052 -121.9436 169° South  Level FlightAware Approximate
Tue 07:11:00 PM 42.9257 -121.9223 169° South  Level FlightAware Approximate
Tue 07:12:00 PM 42.8462 -121.9009 169° South  Level FlightAware Approximate
Tue 07:13:00 PM 42.7644 -121.8791 169° South  Level FlightAware Approximate
Tue 07:14:00 PM 42.6825 -121.8572 169° South  Level FlightAware Approximate
Tue 07:15:00 PM 42.6007 -121.8355 169° South  Level FlightAware Approximate
Tue 07:16:00 PM 42.5188 -121.8138 169° South  Level FlightAware Approximate
Tue 07:17:00 PM 42.4370 -121.7921 169° South  Level FlightAware Approximate
Tue 07:18:00 PM 42.3551 -121.7705 169° South  Level FlightAware Approximate
Tue 07:19:00 PM 42.2733 -121.7490 169° South  Level FlightAware Approximate
Tue 07:20:00 PM 42.1914 -121.7275 169° South  Level FlightAware Approximate
Tue 07:21:00 PM 42.1088 -121.7167 180° South  Level FlightAware Approximate
Tue 07:22:00 PM 42.0254 -121.7167 180° South  Level FlightAware Approximate
Tue 07:23:00 PM 41.9420 -121.7167 180° South  Level FlightAware Approximate
Tue 07:24:00 PM 41.8586 -121.7167 180° South  Level FlightAware Approximate
Tue 07:25:00 PM 41.7752 -121.7167 180° South  Level FlightAware Approximate
Tue 07:26:00 PM 41.6918 -121.7167 180° South  Level FlightAware Approximate
Tue 07:27:00 PM 41.6085 -121.7167 180° South  Level FlightAware Approximate
Tue 07:28:00 PM 41.5251 -121.7167 180° South  Level FlightAware Approximate
Tue 07:29:00 PM 41.4417 -121.7167 180° South  Level FlightAware Approximate
Tue 07:30:00 PM 41.3583 -121.7167 180° South  Level FlightAware Approximate
Tue 07:31:00 PM 41.2749 -121.7167 180° South  Level FlightAware Approximate
Tue 07:32:00 PM 41.1915 -121.7167 180° South  Level FlightAware Approximate
Tue 07:33:00 PM 41.1081 -121.7167 180° South  Level FlightAware Approximate
Tue 07:34:00 PM 41.0253 -121.7116 177° South  Level FlightAware Approximate
Tue 07:35:00 PM 40.9416 -121.7065 177° South  Level FlightAware Approximate
Tue 07:36:00 PM 40.8577 -121.7014 177° South  Level FlightAware Approximate
Tue 07:37:00 PM 40.7739 -121.6963 177° South  Level FlightAware Approximate
Tue 07:38:00 PM 40.6902 -121.6912 177° South  Level FlightAware Approximate
Tue 07:39:00 PM 40.6063 -121.6861 177° South  Level FlightAware Approximate
Tue 07:40:00 PM 40.5225 -121.6810 177° South  Level FlightAware Approximate
Tue 07:41:00 PM 40.4388 -121.6760 177° South  Level FlightAware Approximate
Tue 07:42:00 PM 40.3549 -121.6710 177° South  Level FlightAware Approximate
Tue 07:43:00 PM 40.2714 -121.6637 169° South  Level FlightAware Approximate
Tue 07:44:00 PM 40.1885 -121.6500 180° South  Level FlightAware Approximate
Tue 07:45:00 PM 40.1047 -121.6500 180° South  Level FlightAware Approximate
Tue 07:46:00 PM 40.0211 -121.6421 176° South  Level FlightAware Approximate
Tue 07:47:00 PM 39.9375 -121.6338 176° South  Level FlightAware Approximate
Tue 07:48:00 PM 39.8538 -121.6299 178° South  Level FlightAware Approximate
Tue 07:49:00 PM 39.7700 -121.6262 178° South  Level FlightAware Approximate
Tue 07:50:00 PM 39.6862 -121.6226 178° South  Level FlightAware Approximate
Tue 07:51:00 PM 39.6025 -121.6189 178° South  Level FlightAware Approximate
Tue 07:52:00 PM 39.5187 -121.6167 180° South  Level FlightAware Approximate
Tue 07:53:00 PM 39.4351 -121.6118 176° South  Level FlightAware Approximate
Tue 07:54:00 PM 39.3515 -121.6035 176° South  Level FlightAware Approximate
Tue 07:55:00 PM 39.2678 -121.6000 180° South  Level FlightAware Approximate
Tue 07:56:00 PM 39.1840 -121.6000 180° South  Level FlightAware Approximate
Tue 07:57:00 PM 39.1002 -121.6000 180° South  Level FlightAware Approximate
Tue 07:58:00 PM 39.0169 -121.5881 174° South  Level FlightAware Approximate
Tue 07:59:00 PM 38.9333 -121.5833 180° South  Level FlightAware Approximate
Tue 08:00:00 PM 38.8495 -121.5833 180° South  Level FlightAware Approximate
Tue 08:01:00 PM 38.7657 -121.5833 180° South  Level FlightAware Approximate
Tue 08:02:00 PM 38.6954 -121.5908 180° South  Level Estimated
Tue 08:03:00 PM 38.6954 -121.5908 180° South  Level Estimated

Login

Don't have an account? Register now (free) for customized features, flight alerts, and more!